Weather at Barking Sands Airport

Public forecast

Using degrees Fahrenheit for public forecast. Weather courtesy of forecast.io.

Current aviation weather report (METAR) for Barking Sands Airport

2023/02/09 04:51 (retrieved 1 hour ago)

PHBK 090451Z AUTO 12008KT 10SM CLR 23/15 A3010 RMK AO2 SLP195 T02330150

Closest aviation forecast (TAF) to Barking Sands Airport

Forecast is more than 6 hours old.

Closest forecast is Wake Island Airfield, 1,890.0 nm (3,500.2 km) W.

2023/02/08 22:09 (retrieved 8 hours ago)

TAF TAF PWAK 082200Z 0822/1004 08012KT 9999 SCT020 QNH2995INS TX29/0902Z TN24/0913Z FOR MIL USE ONLY